createdAt,value
2023-01-21T00:10:58.614Z,-1.2
2023-01-21T00:22:58.615Z,-1.3
2023-01-21T00:34:59.086Z,-1.3
2023-01-21T00:46:58.635Z,-1.5
2023-01-21T00:58:58.621Z,-1.6
2023-01-21T01:10:58.643Z,-1.8
2023-01-21T01:22:58.635Z,-1.7
2023-01-21T01:34:58.657Z,-1.8
2023-01-21T01:46:58.640Z,-1.9
2023-01-21T01:58:58.639Z,-1.9
2023-01-21T02:10:58.745Z,-2.2
2023-01-21T02:22:58.669Z,-2.4
2023-01-21T02:34:58.690Z,-2.3
2023-01-21T02:46:58.731Z,-2.3
2023-01-21T02:58:58.622Z,-2.3
2023-01-21T03:10:58.649Z,-2.4
2023-01-21T03:22:58.617Z,-2.6
2023-01-21T03:34:58.721Z,-2.8
2023-01-21T03:46:58.622Z,-2.9
2023-01-21T03:58:58.620Z,-3.1
2023-01-21T04:10:58.623Z,-3.0
2023-01-21T04:22:58.717Z,-3.0
2023-01-21T04:34:58.627Z,-3.1
2023-01-21T04:46:58.725Z,-3.3
2023-01-21T04:58:58.636Z,-3.7
2023-01-21T05:10:58.740Z,-3.7
2023-01-21T05:22:58.617Z,-4.1
2023-01-21T05:34:58.723Z,-4.1
2023-01-21T05:46:58.724Z,-4.6
2023-01-21T05:58:58.734Z,-5.0
2023-01-21T06:10:58.736Z,-4.7
2023-01-21T06:22:58.731Z,-4.6
2023-01-21T06:34:58.687Z,-4.8
2023-01-21T06:47:01.051Z,-5.4
2023-01-21T06:58:58.633Z,-5.4
2023-01-21T07:10:58.652Z,-5.0
2023-01-21T07:22:58.688Z,-4.7
2023-01-21T07:34:58.680Z,-4.8
2023-01-21T07:46:58.737Z,-4.9
2023-01-21T07:58:58.716Z,-5.0
2023-01-21T08:10:58.617Z,-4.7
2023-01-21T08:22:58.699Z,-4.7
2023-01-21T08:34:58.624Z,-5.0
2023-01-21T08:46:58.721Z,-5.0
2023-01-21T08:58:58.693Z,-4.4
2023-01-21T09:10:58.623Z,-4.5
2023-01-21T09:22:58.626Z,-4.2
2023-01-21T09:34:58.610Z,-4.0
2023-01-21T09:46:58.675Z,-3.9
2023-01-21T09:58:58.727Z,-3.6
2023-01-21T10:10:58.728Z,-3.4
2023-01-21T10:22:58.625Z,-3.3
2023-01-21T10:34:58.697Z,-3.2
2023-01-21T10:46:58.738Z,-3.2
2023-01-21T10:58:58.623Z,-3.2
2023-01-21T11:10:58.622Z,-3.0
2023-01-21T11:22:58.624Z,-2.9
2023-01-21T11:34:58.726Z,-2.5
2023-01-21T11:46:58.756Z,-2.2
2023-01-21T11:58:58.882Z,-2.2
2023-01-21T12:10:58.616Z,-2.1
2023-01-21T12:22:58.637Z,-2.1
2023-01-21T12:34:58.730Z,-1.9
2023-01-21T12:46:58.739Z,-1.9
2023-01-21T12:58:58.624Z,-1.8
2023-01-21T13:10:58.697Z,-1.7
2023-01-21T13:22:58.713Z,-1.6
2023-01-21T13:34:58.671Z,-1.6
2023-01-21T13:46:58.697Z,-1.6
2023-01-21T13:58:58.617Z,-1.4
2023-01-21T14:10:58.638Z,-1.4
2023-01-21T14:22:58.729Z,-1.3
2023-01-21T14:34:58.688Z,-1.3
2023-01-21T14:46:58.638Z,-1.3
2023-01-21T14:58:58.736Z,-1.2
2023-01-21T15:10:58.738Z,-1.3
2023-01-21T15:22:58.785Z,-1.2
2023-01-21T15:34:58.618Z,-1.3
2023-01-21T15:46:58.719Z,-1.4
2023-01-21T15:58:58.617Z,-1.5
2023-01-21T16:10:58.715Z,-1.5
2023-01-21T16:22:58.630Z,-1.5
2023-01-21T16:34:58.699Z,-1.5
2023-01-21T16:46:58.725Z,-1.5
2023-01-21T16:58:58.719Z,-1.6
2023-01-21T17:10:58.746Z,-1.6
2023-01-21T17:22:58.610Z,-1.7
2023-01-21T17:34:58.642Z,-1.8
2023-01-21T17:46:58.619Z,-1.8
2023-01-21T17:58:58.631Z,-1.8
2023-01-21T18:10:58.739Z,-1.8
2023-01-21T18:22:58.689Z,-1.9
2023-01-21T18:34:58.719Z,-1.9
2023-01-21T18:46:58.635Z,-1.9
2023-01-21T18:58:58.636Z,-2.0
2023-01-21T19:10:58.694Z,-2.0
2023-01-21T19:22:58.709Z,-2.0
2023-01-21T19:34:58.621Z,-2.1
2023-01-21T19:46:58.811Z,-2.1
2023-01-21T19:58:58.735Z,-2.1
2023-01-21T20:10:58.734Z,-2.1
2023-01-21T20:22:58.736Z,-2.1
2023-01-21T20:34:58.721Z,-2.2
2023-01-21T20:46:58.722Z,-2.1
2023-01-21T20:58:58.626Z,-2.1
2023-01-21T21:10:58.750Z,-2.2
2023-01-21T21:22:58.675Z,-2.1
2023-01-21T21:34:58.701Z,-2.1
2023-01-21T21:46:58.783Z,-2.0
2023-01-21T21:58:58.744Z,-2.0
2023-01-21T22:10:58.724Z,-2.0
2023-01-21T22:22:58.699Z,-1.9
2023-01-21T22:34:58.628Z,-1.9
2023-01-21T22:46:58.761Z,-1.9
2023-01-21T22:58:58.724Z,-1.9
2023-01-21T23:10:58.704Z,-2.1
2023-01-21T23:22:58.735Z,-2.1
2023-01-21T23:34:58.632Z,-2.0
2023-01-21T23:46:58.724Z,-2.0
2023-01-21T23:58:58.703Z,-2.0
